sensor_id;sensor_type;location;lat;lon;timestamp;pressure;altitude;pressure_sealevel;temperature;humidity
32933;BME280;19444;50.518;10.870;2023-02-18T00:02:41;96982.03;;;7.19;100.00
32933;BME280;19444;50.518;10.870;2023-02-18T00:05:37;96981.25;;;7.18;100.00
32933;BME280;19444;50.518;10.870;2023-02-18T00:08:34;96984.75;;;7.03;100.00
32933;BME280;19444;50.518;10.870;2023-02-18T00:11:35;96977.59;;;6.99;100.00
32933;BME280;19444;50.518;10.870;2023-02-18T00:14:32;96983.41;;;7.11;100.00
32933;BME280;19444;50.518;10.870;2023-02-18T00:17:29;96977.00;;;7.12;100.00
32933;BME280;19444;50.518;10.870;2023-02-18T00:20:25;96979.03;;;7.30;100.00
32933;BME280;19444;50.518;10.870;2023-02-18T00:23:22;96978.81;;;7.22;100.00
32933;BME280;19444;50.518;10.870;2023-02-18T00:26:20;96969.31;;;7.00;100.00
32933;BME280;19444;50.518;10.870;2023-02-18T00:29:18;96965.91;;;6.90;100.00
32933;BME280;19444;50.518;10.870;2023-02-18T00:32:15;96977.59;;;6.99;100.00
32933;BME280;19444;50.518;10.870;2023-02-18T00:35:12;96976.31;;;6.76;100.00
32933;BME280;19444;50.518;10.870;2023-02-18T00:38:09;96976.91;;;6.63;100.00
32933;BME280;19444;50.518;10.870;2023-02-18T00:41:07;96979.06;;;6.50;100.00
32933;BME280;19444;50.518;10.870;2023-02-18T00:44:05;96976.44;;;6.10;100.00
32933;BME280;19444;50.518;10.870;2023-02-18T00:47:02;96976.44;;;6.10;100.00
32933;BME280;19444;50.518;10.870;2023-02-18T00:49:59;96970.81;;;5.76;100.00
32933;BME280;19444;50.518;10.870;2023-02-18T00:52:55;96981.19;;;5.72;100.00
32933;BME280;19444;50.518;10.870;2023-02-18T00:55:52;96979.88;;;5.90;100.00
32933;BME280;19444;50.518;10.870;2023-02-18T00:58:50;96978.25;;;5.63;100.00
32933;BME280;19444;50.518;10.870;2023-02-18T01:01:47;96981.94;;;5.42;100.00
32933;BME280;19444;50.518;10.870;2023-02-18T01:04:44;96984.84;;;5.46;100.00
32933;BME280;19444;50.518;10.870;2023-02-18T01:07:41;96976.09;;;5.40;100.00
32933;BME280;19444;50.518;10.870;2023-02-18T01:10:43;96972.72;;;6.01;100.00
32933;BME280;19444;50.518;10.870;2023-02-18T01:13:41;96979.84;;;5.85;100.00
32933;BME280;19444;50.518;10.870;2023-02-18T01:16:38;96971.00;;;5.23;100.00
32933;BME280;19444;50.518;10.870;2023-02-18T01:19:35;96980.25;;;5.21;100.00
32933;BME280;19444;50.518;10.870;2023-02-18T01:22:32;96972.34;;;5.36;100.00
32933;BME280;19444;50.518;10.870;2023-02-18T01:25:29;96972.41;;;5.61;100.00
32933;BME280;19444;50.518;10.870;2023-02-18T01:28:26;96958.88;;;5.78;100.00
32933;BME280;19444;50.518;10.870;2023-02-18T01:31:23;96951.38;;;6.51;100.00
32933;BME280;19444;50.518;10.870;2023-02-18T01:34:20;96953.75;;;6.48;100.00
32933;BME280;19444;50.518;10.870;2023-02-18T01:37:17;96951.59;;;6.65;100.00
32933;BME280;19444;50.518;10.870;2023-02-18T01:40:19;96947.84;;;6.71;100.00
32933;BME280;19444;50.518;10.870;2023-02-18T01:43:17;96945.16;;;6.87;100.00
32933;BME280;19444;50.518;10.870;2023-02-18T01:46:19;96958.75;;;6.75;100.00
32933;BME280;19444;50.518;10.870;2023-02-18T01:49:26;96952.22;;;7.17;100.00
32933;BME280;19444;50.518;10.870;2023-02-18T01:52:25;96942.38;;;7.07;100.00
32933;BME280;19444;50.518;10.870;2023-02-18T01:55:23;96942.28;;;7.22;100.00
32933;BME280;19444;50.518;10.870;2023-02-18T01:58:20;96945.81;;;7.12;100.00
32933;BME280;19444;50.518;10.870;2023-02-18T02:01:17;96942.91;;;7.14;100.00
32933;BME280;19444;50.518;10.870;2023-02-18T02:04:14;96953.56;;;7.09;100.00
32933;BME280;19444;50.518;10.870;2023-02-18T02:07:11;96949.88;;;6.95;100.00
32933;BME280;19444;50.518;10.870;2023-02-18T02:10:11;96935.41;;;7.16;100.00
32933;BME280;19444;50.518;10.870;2023-02-18T02:17:23;96937.53;;;7.19;100.00
32933;BME280;19444;50.518;10.870;2023-02-18T02:27:28;96949.28;;;7.13;100.00
32933;BME280;19444;50.518;10.870;2023-02-18T02:34:57;96945.44;;;7.34;100.00
32933;BME280;19444;50.518;10.870;2023-02-18T02:38:18;96945.75;;;7.28;100.00
32933;BME280;19444;50.518;10.870;2023-02-18T02:41:39;96941.19;;;7.33;100.00
32933;BME280;19444;50.518;10.870;2023-02-18T02:48:39;96927.53;;;7.40;100.00
32933;BME280;19444;50.518;10.870;2023-02-18T02:52:11;96920.53;;;7.49;100.00
32933;BME280;19444;50.518;10.870;2023-02-18T02:55:10;96929.00;;;7.61;100.00
32933;BME280;19444;50.518;10.870;2023-02-18T02:58:15;96924.00;;;7.50;100.00
32933;BME280;19444;50.518;10.870;2023-02-18T03:01:31;96934.22;;;7.37;100.00
32933;BME280;19444;50.518;10.870;2023-02-18T03:04:56;96931.41;;;7.58;100.00
32933;BME280;19444;50.518;10.870;2023-02-18T03:11:17;96927.06;;;7.72;100.00
32933;BME280;19444;50.518;10.870;2023-02-18T03:14:27;96929.69;;;7.77;100.00
32933;BME280;19444;50.518;10.870;2023-02-18T03:17:43;96926.78;;;7.74;100.00
32933;BME280;19444;50.518;10.870;2023-02-18T03:20:54;96926.50;;;7.75;100.00
32933;BME280;19444;50.518;10.870;2023-02-18T03:27:11;96930.44;;;7.83;100.00
32933;BME280;19444;50.518;10.870;2023-02-18T03:33:19;96924.91;;;7.74;100.00
32933;BME280;19444;50.518;10.870;2023-02-18T03:36:20;96935.34;;;7.70;100.00
32933;BME280;19444;50.518;10.870;2023-02-18T03:39:19;96930.25;;;7.74;100.00
32933;BME280;19444;50.518;10.870;2023-02-18T03:42:18;96932.13;;;7.74;100.00
32933;BME280;19444;50.518;10.870;2023-02-18T03:45:15;96944.25;;;7.56;100.00
32933;BME280;19444;50.518;10.870;2023-02-18T03:48:12;96943.69;;;7.59;100.00
32933;BME280;19444;50.518;10.870;2023-02-18T03:51:09;96944.16;;;7.66;100.00
32933;BME280;19444;50.518;10.870;2023-02-18T03:54:06;96939.69;;;7.56;100.00
32933;BME280;19444;50.518;10.870;2023-02-18T03:57:03;96945.53;;;7.63;100.00
32933;BME280;19444;50.518;10.870;2023-02-18T04:00:00;96956.78;;;7.55;100.00
32933;BME280;19444;50.518;10.870;2023-02-18T04:02:57;96966.94;;;7.53;100.00
32933;BME280;19444;50.518;10.870;2023-02-18T04:05:54;96957.50;;;7.71;100.00
32933;BME280;19444;50.518;10.870;2023-02-18T04:08:50;96958.03;;;7.68;100.00
32933;BME280;19444;50.518;10.870;2023-02-18T04:11:47;96963.22;;;7.88;100.00
32933;BME280;19444;50.518;10.870;2023-02-18T04:14:44;96957.97;;;7.78;100.00
32933;BME280;19444;50.518;10.870;2023-02-18T04:17:41;96959.59;;;7.74;100.00
32933;BME280;19444;50.518;10.870;2023-02-18T04:20:38;96965.94;;;7.83;100.00
32933;BME280;19444;50.518;10.870;2023-02-18T04:23:35;96956.34;;;7.77;100.00
32933;BME280;19444;50.518;10.870;2023-02-18T04:26:32;96952.88;;;7.82;100.00
32933;BME280;19444;50.518;10.870;2023-02-18T04:29:29;96959.06;;;7.72;100.00
32933;BME280;19444;50.518;10.870;2023-02-18T04:32:26;96950.88;;;7.63;100.00
32933;BME280;19444;50.518;10.870;2023-02-18T04:35:23;96941.75;;;7.69;100.00
32933;BME280;19444;50.518;10.870;2023-02-18T04:38:20;96945.34;;;7.50;100.00
32933;BME280;19444;50.518;10.870;2023-02-18T04:41:17;96943.69;;;7.59;100.00
32933;BME280;19444;50.518;10.870;2023-02-18T04:44:14;96945.50;;;7.68;100.00
32933;BME280;19444;50.518;10.870;2023-02-18T04:47:11;96944.69;;;7.68;100.00
32933;BME280;19444;50.518;10.870;2023-02-18T04:50:08;96935.16;;;7.57;100.00
32933;BME280;19444;50.518;10.870;2023-02-18T04:53:05;96933.78;;;7.64;100.00
32933;BME280;19444;50.518;10.870;2023-02-18T04:56:02;96911.53;;;7.79;100.00
32933;BME280;19444;50.518;10.870;2023-02-18T04:58:59;96913.50;;;7.68;100.00
32933;BME280;19444;50.518;10.870;2023-02-18T05:01:56;96906.22;;;7.79;100.00
32933;BME280;19444;50.518;10.870;2023-02-18T05:04:53;96913.66;;;7.77;100.00
32933;BME280;19444;50.518;10.870;2023-02-18T05:07:50;96916.34;;;7.77;100.00
32933;BME280;19444;50.518;10.870;2023-02-18T05:10:47;96904.63;;;7.78;100.00
32933;BME280;19444;50.518;10.870;2023-02-18T05:13:44;96910.66;;;7.89;100.00
32933;BME280;19444;50.518;10.870;2023-02-18T05:16:40;96903.75;;;7.88;100.00
32933;BME280;19444;50.518;10.870;2023-02-18T05:19:37;96889.53;;;7.92;100.00
32933;BME280;19444;50.518;10.870;2023-02-18T05:22:34;96881.59;;;7.87;100.00
32933;BME280;19444;50.518;10.870;2023-02-18T05:25:31;96883.22;;;7.83;100.00
32933;BME280;19444;50.518;10.870;2023-02-18T05:28:28;96884.88;;;7.79;100.00
32933;BME280;19444;50.518;10.870;2023-02-18T05:31:25;96880.31;;;7.80;100.00
32933;BME280;19444;50.518;10.870;2023-02-18T05:34:22;96873.84;;;7.86;100.00
32933;BME280;19444;50.518;10.870;2023-02-18T05:37:19;96873.06;;;7.85;100.00
32933;BME280;19444;50.518;10.870;2023-02-18T05:40:16;96878.72;;;7.79;100.00
32933;BME280;19444;50.518;10.870;2023-02-18T05:43:13;96876.88;;;7.79;100.00
32933;BME280;19444;50.518;10.870;2023-02-18T05:46:10;96878.38;;;7.85;100.00
32933;BME280;19444;50.518;10.870;2023-02-18T05:49:07;96877.16;;;7.78;100.00
32933;BME280;19444;50.518;10.870;2023-02-18T05:52:04;96874.19;;;7.79;100.00
32933;BME280;19444;50.518;10.870;2023-02-18T05:55:02;96865.75;;;7.67;100.00
32933;BME280;19444;50.518;10.870;2023-02-18T05:57:59;96864.13;;;7.71;100.00
32933;BME280;19444;50.518;10.870;2023-02-18T06:00:56;96861.00;;;7.59;100.00
32933;BME280;19444;50.518;10.870;2023-02-18T06:03:52;96850.81;;;7.66;100.00
32933;BME280;19444;50.518;10.870;2023-02-18T06:06:49;96850.03;;;7.65;100.00
32933;BME280;19444;50.518;10.870;2023-02-18T06:09:47;96858.53;;;7.67;100.00
32933;BME280;19444;50.518;10.870;2023-02-18T06:12:44;96855.81;;;7.78;100.00
32933;BME280;19444;50.518;10.870;2023-02-18T06:15:41;96846.75;;;7.74;100.00
32933;BME280;19444;50.518;10.870;2023-02-18T06:18:39;96848.44;;;7.64;100.00
32933;BME280;19444;50.518;10.870;2023-02-18T06:21:36;96855.53;;;7.74;100.00
32933;BME280;19444;50.518;10.870;2023-02-18T06:24:33;96854.34;;;7.90;100.00
32933;BME280;19444;50.518;10.870;2023-02-18T06:27:30;96846.91;;;7.87;100.00
32933;BME280;19444;50.518;10.870;2023-02-18T06:30:27;96836.31;;;7.77;100.00
32933;BME280;19444;50.518;10.870;2023-02-18T06:33:24;96836.56;;;7.81;100.00
32933;BME280;19444;50.518;10.870;2023-02-18T06:36:21;96840.38;;;7.98;100.00
32933;BME280;19444;50.518;10.870;2023-02-18T06:39:18;96836.22;;;7.87;100.00
32933;BME280;19444;50.518;10.870;2023-02-18T06:42:14;96842.78;;;7.71;100.00
32933;BME280;19444;50.518;10.870;2023-02-18T06:45:11;96834.91;;;7.85;100.00
32933;BME280;19444;50.518;10.870;2023-02-18T06:48:09;96828.44;;;7.91;100.00
32933;BME280;19444;50.518;10.870;2023-02-18T06:51:06;96817.81;;;7.86;100.00
32933;BME280;19444;50.518;10.870;2023-02-18T06:54:03;96815.16;;;7.86;100.00
32933;BME280;19444;50.518;10.870;2023-02-18T06:57:01;96807.06;;;7.96;100.00
32933;BME280;19444;50.518;10.870;2023-02-18T06:59:58;96804.44;;;7.91;100.00
32933;BME280;19444;50.518;10.870;2023-02-18T07:02:55;96805.34;;;7.81;100.00
32933;BME280;19444;50.518;10.870;2023-02-18T07:05:52;96796.72;;;7.89;100.00
32933;BME280;19444;50.518;10.870;2023-02-18T07:08:49;96791.38;;;7.89;100.00
32933;BME280;19444;50.518;10.870;2023-02-18T07:11:48;96787.41;;;7.87;100.00
32933;BME280;19444;50.518;10.870;2023-02-18T07:14:44;96787.50;;;7.77;100.00
32933;BME280;19444;50.518;10.870;2023-02-18T07:17:41;96781.28;;;7.86;100.00
32933;BME280;19444;50.518;10.870;2023-02-18T07:20:38;96796.22;;;7.87;100.00
32933;BME280;19444;50.518;10.870;2023-02-18T07:23:36;96780.47;;;7.86;100.00
32933;BME280;19444;50.518;10.870;2023-02-18T07:26:34;96779.84;;;7.94;100.00
32933;BME280;19444;50.518;10.870;2023-02-18T07:29:31;96781.50;;;7.90;100.00
32933;BME280;19444;50.518;10.870;2023-02-18T07:32:27;96760.72;;;7.87;100.00
32933;BME280;19444;50.518;10.870;2023-02-18T07:35:24;96761.22;;;7.89;100.00
32933;BME280;19444;50.518;10.870;2023-02-18T07:38:22;96759.94;;;7.86;100.00
32933;BME280;19444;50.518;10.870;2023-02-18T07:41:21;96751.03;;;7.96;100.00
32933;BME280;19444;50.518;10.870;2023-02-18T07:44:18;96747.16;;;8.07;100.00
32933;BME280;19444;50.518;10.870;2023-02-18T07:47:16;96759.25;;;7.99;100.00
32933;BME280;19444;50.518;10.870;2023-02-18T07:50:16;96749.25;;;7.86;100.00
32933;BME280;19444;50.518;10.870;2023-02-18T07:53:15;96748.56;;;7.99;100.00
32933;BME280;19444;50.518;10.870;2023-02-18T07:56:12;96750.28;;;7.90;100.00
32933;BME280;19444;50.518;10.870;2023-02-18T07:59:11;96748.22;;;8.06;100.00
32933;BME280;19444;50.518;10.870;2023-02-18T08:02:19;96738.19;;;7.98;100.00
32933;BME280;19444;50.518;10.870;2023-02-18T08:05:16;96732.06;;;7.97;100.00
32933;BME280;19444;50.518;10.870;2023-02-18T08:08:24;96721.75;;;8.10;100.00
32933;BME280;19444;50.518;10.870;2023-02-18T08:11:21;96726.34;;;8.04;100.00
32933;BME280;19444;50.518;10.870;2023-02-18T08:14:18;96716.59;;;7.94;100.00
32933;BME280;19444;50.518;10.870;2023-02-18T08:17:15;96722.56;;;8.10;100.00
32933;BME280;19444;50.518;10.870;2023-02-18T08:20:13;96722.25;;;8.12;100.00
32933;BME280;19444;50.518;10.870;2023-02-18T08:23:10;96731.97;;;8.03;100.00
32933;BME280;19444;50.518;10.870;2023-02-18T08:26:07;96733.31;;;8.05;100.00
32933;BME280;19444;50.518;10.870;2023-02-18T08:29:05;96729.94;;;7.94;100.00
32933;BME280;19444;50.518;10.870;2023-02-18T08:32:02;96720.59;;;7.97;100.00
32933;BME280;19444;50.518;10.870;2023-02-18T08:34:59;96738.09;;;8.03;100.00
32933;BME280;19444;50.518;10.870;2023-02-18T08:37:56;96732.84;;;7.98;100.00
32933;BME280;19444;50.518;10.870;2023-02-18T08:41:02;96713.69;;;8.15;100.00
32933;BME280;19444;50.518;10.870;2023-02-18T08:43:59;96721.00;;;8.04;100.00
32933;BME280;19444;50.518;10.870;2023-02-18T08:46:56;96723.97;;;8.03;100.00
32933;BME280;19444;50.518;10.870;2023-02-18T08:49:53;96729.88;;;7.99;100.00
32933;BME280;19444;50.518;10.870;2023-02-18T08:52:53;96721.59;;;8.01;100.00
32933;BME280;19444;50.518;10.870;2023-02-18T08:55:50;96734.75;;;7.92;100.00
32933;BME280;19444;50.518;10.870;2023-02-18T08:58:47;96741.41;;;7.95;100.00
32933;BME280;19444;50.518;10.870;2023-02-18T09:01:44;96735.84;;;7.91;100.00
32933;BME280;19444;50.518;10.870;2023-02-18T09:04:41;96738.97;;;7.75;100.00
32933;BME280;19444;50.518;10.870;2023-02-18T09:07:38;96740.59;;;7.94;100.00
32933;BME280;19444;50.518;10.870;2023-02-18T09:10:35;96734.03;;;7.87;100.00
32933;BME280;19444;50.518;10.870;2023-02-18T09:13:33;96732.00;;;7.79;100.00
32933;BME280;19444;50.518;10.870;2023-02-18T09:16:29;96746.97;;;7.75;100.00
32933;BME280;19444;50.518;10.870;2023-02-18T09:19:26;96725.91;;;7.73;100.00
32933;BME280;19444;50.518;10.870;2023-02-18T09:22:23;96724.00;;;7.79;100.00
32933;BME280;19444;50.518;10.870;2023-02-18T09:25:20;96734.41;;;7.75;100.00
32933;BME280;19444;50.518;10.870;2023-02-18T09:28:17;96717.28;;;7.81;100.00
32933;BME280;19444;50.518;10.870;2023-02-18T09:31:18;96717.88;;;7.78;100.00
32933;BME280;19444;50.518;10.870;2023-02-18T09:34:16;96717.28;;;7.81;100.00
32933;BME280;19444;50.518;10.870;2023-02-18T09:37:13;96719.78;;;7.73;100.00
32933;BME280;19444;50.518;10.870;2023-02-18T09:40:25;96712.53;;;7.78;100.00
32933;BME280;19444;50.518;10.870;2023-02-18T09:43:34;96713.06;;;7.75;100.00
32933;BME280;19444;50.518;10.870;2023-02-18T09:46:38;96722.63;;;7.81;100.00
32933;BME280;19444;50.518;10.870;2023-02-18T09:49:40;96717.91;;;7.73;100.00
32933;BME280;19444;50.518;10.870;2023-02-18T09:52:39;96731.72;;;7.80;100.00
32933;BME280;19444;50.518;10.870;2023-02-18T09:55:40;96724.78;;;7.79;100.00
32933;BME280;19444;50.518;10.870;2023-02-18T09:58:38;96732.97;;;7.88;100.00
32933;BME280;19444;50.518;10.870;2023-02-18T10:01:37;96724.66;;;7.89;100.00
32933;BME280;19444;50.518;10.870;2023-02-18T10:04:43;96725.88;;;7.78;100.00
32933;BME280;19444;50.518;10.870;2023-02-18T10:07:42;96726.31;;;7.85;100.00
32933;BME280;19444;50.518;10.870;2023-02-18T10:10:45;96733.09;;;7.78;100.00
32933;BME280;19444;50.518;10.870;2023-02-18T10:13:43;96733.09;;;7.78;100.00
32933;BME280;19444;50.518;10.870;2023-02-18T10:16:45;96719.38;;;7.84;100.00
32933;BME280;19444;50.518;10.870;2023-02-18T10:19:45;96726.72;;;7.74;100.00
32933;BME280;19444;50.518;10.870;2023-02-18T10:22:43;96711.44;;;7.79;100.00
32933;BME280;19444;50.518;10.870;2023-02-18T10:25:44;96710.91;;;7.77;100.00
32933;BME280;19444;50.518;10.870;2023-02-18T10:28:42;96720.88;;;7.72;100.00
32933;BME280;19444;50.518;10.870;2023-02-18T10:32:04;96699.81;;;7.70;100.00
32933;BME280;19444;50.518;10.870;2023-02-18T10:35:50;96707.19;;;7.78;100.00
32933;BME280;19444;50.518;10.870;2023-02-18T10:42:28;96694.69;;;7.74;100.00
32933;BME280;19444;50.518;10.870;2023-02-18T10:45:32;96694.66;;;7.79;100.00
32933;BME280;19444;50.518;10.870;2023-02-18T10:49:03;96694.41;;;7.75;100.00
32933;BME280;19444;50.518;10.870;2023-02-18T10:52:08;96696.22;;;7.80;100.00
32933;BME280;19444;50.518;10.870;2023-02-18T10:55:13;96689.06;;;7.75;100.00
32933;BME280;19444;50.518;10.870;2023-02-18T11:01:28;96681.31;;;7.79;100.00
32933;BME280;19444;50.518;10.870;2023-02-18T11:04:37;96681.34;;;7.74;100.00
32933;BME280;19444;50.518;10.870;2023-02-18T11:07:37;96685.28;;;7.81;100.00
32933;BME280;19444;50.518;10.870;2023-02-18T11:10:39;96688.00;;;7.76;100.00
32933;BME280;19444;50.518;10.870;2023-02-18T11:13:40;96674.59;;;7.81;100.00
32933;BME280;19444;50.518;10.870;2023-02-18T11:16:39;96674.59;;;7.81;100.00
32933;BME280;19444;50.518;10.870;2023-02-18T11:19:39;96676.97;;;7.83;100.00
32933;BME280;19444;50.518;10.870;2023-02-18T11:22:36;96662.56;;;7.84;100.00
32933;BME280;19444;50.518;10.870;2023-02-18T11:25:38;96653.75;;;7.83;100.00
32933;BME280;19444;50.518;10.870;2023-02-18T11:28:46;96652.13;;;7.87;100.00
32933;BME280;19444;50.518;10.870;2023-02-18T11:31:46;96639.56;;;7.88;100.00
32933;BME280;19444;50.518;10.870;2023-02-18T11:34:45;96639.50;;;7.93;100.00
32933;BME280;19444;50.518;10.870;2023-02-18T11:37:42;96634.44;;;7.91;100.00
32933;BME280;19444;50.518;10.870;2023-02-18T11:40:39;96633.66;;;7.91;100.00
32933;BME280;19444;50.518;10.870;2023-02-18T11:43:42;96630.66;;;7.97;100.00
32933;BME280;19444;50.518;10.870;2023-02-18T11:53:36;96616.50;;;7.97;100.00
32933;BME280;19444;50.518;10.870;2023-02-18T11:56:34;96613.84;;;7.97;100.00
32933;BME280;19444;50.518;10.870;2023-02-18T11:59:35;96614.25;;;8.04;100.00
32933;BME280;19444;50.518;10.870;2023-02-18T12:02:36;96620.91;;;8.07;100.00
32933;BME280;19444;50.518;10.870;2023-02-18T12:05:34;96617.22;;;8.21;100.00
32933;BME280;19444;50.518;10.870;2023-02-18T12:08:48;96611.81;;;8.08;100.00
32933;BME280;19444;50.518;10.870;2023-02-18T12:11:52;96609.31;;;8.16;100.00
32933;BME280;19444;50.518;10.870;2023-02-18T12:14:53;96611.19;;;8.16;100.00
32933;BME280;19444;50.518;10.870;2023-02-18T12:18:43;96604.53;;;8.13;100.00
32933;BME280;19444;50.518;10.870;2023-02-18T12:21:51;96598.63;;;8.16;100.00
32933;BME280;19444;50.518;10.870;2023-02-18T12:28:50;96607.63;;;8.20;100.00
32933;BME280;19444;50.518;10.870;2023-02-18T12:52:40;96592.31;;;7.69;100.00
32933;BME280;19444;50.518;10.870;2023-02-18T12:59:12;96639.44;;;7.55;100.00
32933;BME280;19444;50.518;10.870;2023-02-18T13:02:55;96629.50;;;7.61;100.00
32933;BME280;19444;50.518;10.870;2023-02-18T13:06:23;96650.09;;;7.55;100.00
32933;BME280;19444;50.518;10.870;2023-02-18T13:09:51;96647.72;;;7.54;100.00
32933;BME280;19444;50.518;10.870;2023-02-18T13:16:08;96635.97;;;7.55;100.00
32933;BME280;19444;50.518;10.870;2023-02-18T13:22:23;96627.69;;;7.56;100.00
32933;BME280;19444;50.518;10.870;2023-02-18T13:25:21;96610.03;;;7.60;100.00
32933;BME280;19444;50.518;10.870;2023-02-18T13:35:22;96617.75;;;7.62;100.00
32933;BME280;19444;50.518;10.870;2023-02-18T13:38:51;96612.06;;;7.68;100.00
32933;BME280;19444;50.518;10.870;2023-02-18T13:42:32;96612.34;;;7.67;100.00
32933;BME280;19444;50.518;10.870;2023-02-18T13:45:32;96600.09;;;7.66;100.00
32933;BME280;19444;50.518;10.870;2023-02-18T13:48:30;96602.19;;;7.69;100.00
32933;BME280;19444;50.518;10.870;2023-02-18T13:51:44;96598.94;;;7.72;100.00
32933;BME280;19444;50.518;10.870;2023-02-18T13:54:45;96601.63;;;7.72;100.00
32933;BME280;19444;50.518;10.870;2023-02-18T13:57:47;96605.56;;;7.75;100.00
32933;BME280;19444;50.518;10.870;2023-02-18T14:01:02;96604.50;;;7.76;100.00
32933;BME280;19444;50.518;10.870;2023-02-18T14:04:00;96603.41;;;7.77;100.00
32933;BME280;19444;50.518;10.870;2023-02-18T14:13:24;96602.63;;;7.76;100.00
32933;BME280;19444;50.518;10.870;2023-02-18T14:29:31;96603.16;;;7.78;100.00
32933;BME280;19444;50.518;10.870;2023-02-18T14:32:28;96596.66;;;7.84;100.00
32933;BME280;19444;50.518;10.870;2023-02-18T14:39:07;96589.38;;;7.90;100.00
32933;BME280;19444;50.518;10.870;2023-02-18T14:47:07;96595.69;;;7.75;100.00
32933;BME280;19444;50.518;10.870;2023-02-18T14:50:16;96605.38;;;7.71;100.00
32933;BME280;19444;50.518;10.870;2023-02-18T14:53:18;96605.72;;;7.64;100.00
32933;BME280;19444;50.518;10.870;2023-02-18T14:56:18;96593.31;;;7.74;100.00
32933;BME280;19444;50.518;10.870;2023-02-18T14:59:17;96601.50;;;7.82;100.00
32933;BME280;19444;50.518;10.870;2023-02-18T15:02:25;96589.03;;;7.78;100.00
32933;BME280;19444;50.518;10.870;2023-02-18T15:05:31;96607.03;;;7.86;100.00
32933;BME280;19444;50.518;10.870;2023-02-18T15:08:36;96610.13;;;7.74;100.00
32933;BME280;19444;50.518;10.870;2023-02-18T15:11:44;96602.06;;;7.79;100.00
32933;BME280;19444;50.518;10.870;2023-02-18T15:14:42;96604.91;;;7.88;100.00
32933;BME280;19444;50.518;10.870;2023-02-18T15:17:46;96610.53;;;7.86;100.00
32933;BME280;19444;50.518;10.870;2023-02-18T15:20:44;96604.59;;;7.89;100.00
32933;BME280;19444;50.518;10.870;2023-02-18T15:23:41;96605.28;;;7.76;100.00
32933;BME280;19444;50.518;10.870;2023-02-18T15:26:44;96607.97;;;7.76;100.00
32933;BME280;19444;50.518;10.870;2023-02-18T15:29:55;96611.88;;;7.84;100.00
32933;BME280;19444;50.518;10.870;2023-02-18T15:32:58;96600.19;;;7.80;100.00
32933;BME280;19444;50.518;10.870;2023-02-18T15:36:06;96611.72;;;7.75;100.00
32933;BME280;19444;50.518;10.870;2023-02-18T15:39:08;96602.28;;;7.83;100.00
32933;BME280;19444;50.518;10.870;2023-02-18T15:42:34;96603.69;;;7.75;100.00
32933;BME280;19444;50.518;10.870;2023-02-18T15:45:40;96599.47;;;7.74;100.00
32933;BME280;19444;50.518;10.870;2023-02-18T15:48:49;96612.63;;;7.65;100.00
32933;BME280;19444;50.518;10.870;2023-02-18T15:51:49;96610.66;;;7.52;100.00
32933;BME280;19444;50.518;10.870;2023-02-18T15:54:49;96603.47;;;7.53;100.00
32933;BME280;19444;50.518;10.870;2023-02-18T15:57:48;96607.00;;;7.67;100.00
32933;BME280;19444;50.518;10.870;2023-02-18T16:00:51;96609.75;;;7.62;100.00
32933;BME280;19444;50.518;10.870;2023-02-18T16:03:49;96599.38;;;7.60;100.00
32933;BME280;19444;50.518;10.870;2023-02-18T16:06:50;96604.13;;;7.63;100.00
32933;BME280;19444;50.518;10.870;2023-02-18T16:09:47;96606.34;;;7.56;100.00
32933;BME280;19444;50.518;10.870;2023-02-18T16:12:48;96605.25;;;7.57;100.00
32933;BME280;19444;50.518;10.870;2023-02-18T16:15:49;96603.47;;;7.53;100.00
32933;BME280;19444;50.518;10.870;2023-02-18T16:18:47;96607.72;;;7.54;100.00
32933;BME280;19444;50.518;10.870;2023-02-18T16:21:46;96604.75;;;7.55;100.00
32933;BME280;19444;50.518;10.870;2023-02-18T16:24:43;96606.34;;;7.56;100.00
32933;BME280;19444;50.518;10.870;2023-02-18T16:30:55;96610.09;;;7.55;100.00
32933;BME280;19444;50.518;10.870;2023-02-18T16:33:51;96615.41;;;7.55;100.00
32933;BME280;19444;50.518;10.870;2023-02-18T16:36:48;96615.63;;;7.59;100.00
32933;BME280;19444;50.518;10.870;2023-02-18T16:40:31;96612.53;;;7.52;100.00
32933;BME280;19444;50.518;10.870;2023-02-18T16:43:28;96615.72;;;7.54;100.00
32933;BME280;19444;50.518;10.870;2023-02-18T16:46:28;96623.72;;;7.54;100.00
32933;BME280;19444;50.518;10.870;2023-02-18T16:49:27;96622.84;;;7.58;100.00
32933;BME280;19444;50.518;10.870;2023-02-18T16:52:25;96626.84;;;7.61;100.00
32933;BME280;19444;50.518;10.870;2023-02-18T16:55:27;96625.88;;;7.52;100.00
32933;BME280;19444;50.518;10.870;2023-02-18T16:58:24;96628.19;;;7.58;100.00
32933;BME280;19444;50.518;10.870;2023-02-18T17:01:24;96633.28;;;7.55;100.00
32933;BME280;19444;50.518;10.870;2023-02-18T17:04:22;96631.13;;;7.57;100.00
32933;BME280;19444;50.518;10.870;2023-02-18T17:07:19;96629.03;;;7.54;100.00
32933;BME280;19444;50.518;10.870;2023-02-18T17:10:16;96631.94;;;7.57;100.00
32933;BME280;19444;50.518;10.870;2023-02-18T17:13:17;96642.88;;;7.56;100.00
32933;BME280;19444;50.518;10.870;2023-02-18T17:16:15;96642.84;;;7.61;100.00
32933;BME280;19444;50.518;10.870;2023-02-18T17:19:12;96645.50;;;7.61;100.00
32933;BME280;19444;50.518;10.870;2023-02-18T17:22:12;96650.25;;;7.64;100.00
32933;BME280;19444;50.518;10.870;2023-02-18T17:25:17;96645.22;;;7.62;100.00
32933;BME280;19444;50.518;10.870;2023-02-18T17:28:15;96660.63;;;7.65;100.00
32933;BME280;19444;50.518;10.870;2023-02-18T17:31:18;96653.09;;;7.73;100.00
32933;BME280;19444;50.518;10.870;2023-02-18T17:34:26;96652.94;;;7.64;100.00
32933;BME280;19444;50.518;10.870;2023-02-18T17:37:23;96652.31;;;7.72;100.00
32933;BME280;19444;50.518;10.870;2023-02-18T17:40:26;96648.59;;;7.68;100.00
32933;BME280;19444;50.518;10.870;2023-02-18T17:43:23;96651.22;;;7.73;100.00